Petersburg, Illinois
Current Conditions -  °F | °C
As of 9:52 AM on Saturday 20 Dec 2014 (Local Time) from KSPI Reporting Station
Overcast Overcast  
Wind Chill: 30°   Ceiling: 6000
Heat Index: 35°   Visibility: 9mi
Dew Point: 27°   Wind: 6mph
Humidity: 72%   Direction: 160°SSE
Pressure: 30.29"   Gusts: NA
Location:  40.01°N, 89.85°W
Report Text: KSPI 201552Z 16005KT 9SM OVC060 02/M03 A3029 RMK AO2 SLP264 T00171028
Loading
Personal Weather Stations






























Interactive Weather Map New forecast layout! Learn more

10-Day Weather Forecast

Advertisements
Track Severe Weather on mobile